sensor_id;sensor_type;location;lat;lon;timestamp;temperature;humidity
56436;DHT22;42335;44.872;20.658;2022-09-24T00:00:37;281.70;2278.40
56436;DHT22;42335;44.872;20.658;2022-09-24T00:03:02;281.70;2278.40
56436;DHT22;42335;44.872;20.658;2022-09-24T00:05:28;281.60;2278.40
56436;DHT22;42335;44.872;20.658;2022-09-24T00:07:54;281.60;2278.40
56436;DHT22;42335;44.872;20.658;2022-09-24T00:10:19;256.80;2252.80
56436;DHT22;42335;44.872;20.658;2022-09-24T00:12:46;256.80;2252.80
56436;DHT22;42335;44.872;20.658;2022-09-24T00:15:12;256.80;2252.80
56436;DHT22;42335;44.872;20.658;2022-09-24T00:17:38;256.80;2252.80
56436;DHT22;42335;44.872;20.658;2022-09-24T00:20:03;256.80;2252.80
56436;DHT22;42335;44.872;20.658;2022-09-24T00:22:31;256.70;2252.80
56436;DHT22;42335;44.872;20.658;2022-09-24T00:24:57;256.70;2252.80
56436;DHT22;42335;44.872;20.658;2022-09-24T00:27:41;256.60;2252.80
56436;DHT22;42335;44.872;20.658;2022-09-24T00:30:07;256.60;2252.80
56436;DHT22;42335;44.872;20.658;2022-09-24T00:32:33;256.50;2252.80
56436;DHT22;42335;44.872;20.658;2022-09-24T00:34:58;256.40;2252.80
56436;DHT22;42335;44.872;20.658;2022-09-24T00:37:24;256.40;2252.80
56436;DHT22;42335;44.872;20.658;2022-09-24T00:39:50;256.50;2252.80
56436;DHT22;42335;44.872;20.658;2022-09-24T00:42:18;256.50;2252.80
56436;DHT22;42335;44.872;20.658;2022-09-24T00:49:53;256.40;2252.80
56436;DHT22;42335;44.872;20.658;2022-09-24T00:52:20;256.30;2252.80
56436;DHT22;42335;44.872;20.658;2022-09-24T00:54:46;256.30;2252.80
56436;DHT22;42335;44.872;20.658;2022-09-24T00:57:12;256.30;2252.80
56436;DHT22;42335;44.872;20.658;2022-09-24T00:59:39;256.10;2252.80
56436;DHT22;42335;44.872;20.658;2022-09-24T01:02:05;256.10;2252.80
56436;DHT22;42335;44.872;20.658;2022-09-24T01:04:31;231.30;2252.80
56436;DHT22;42335;44.872;20.658;2022-09-24T01:06:58;231.20;2252.80
56436;DHT22;42335;44.872;20.658;2022-09-24T01:09:26;231.00;2252.80
56436;DHT22;42335;44.872;20.658;2022-09-24T01:28:43;231.10;2252.80
56436;DHT22;42335;44.872;20.658;2022-09-24T01:31:30;231.10;2252.80
56436;DHT22;42335;44.872;20.658;2022-09-24T01:34:01;231.10;2252.80
56436;DHT22;42335;44.872;20.658;2022-09-24T01:36:32;231.10;2252.80
56436;DHT22;42335;44.872;20.658;2022-09-24T01:38:58;231.10;2252.80
56436;DHT22;42335;44.872;20.658;2022-09-24T01:41:25;230.90;2252.80
56436;DHT22;42335;44.872;20.658;2022-09-24T01:43:51;230.90;2252.80
56436;DHT22;42335;44.872;20.658;2022-09-24T01:46:17;231.00;2252.80
56436;DHT22;42335;44.872;20.658;2022-09-24T01:48:45;230.90;2252.80
56436;DHT22;42335;44.872;20.658;2022-09-24T01:51:59;230.90;2252.80
56436;DHT22;42335;44.872;20.658;2022-09-24T01:54:21;230.90;2252.80
56436;DHT22;42335;44.872;20.658;2022-09-24T01:57:08;230.90;2252.80
56436;DHT22;42335;44.872;20.658;2022-09-24T02:04:58;230.90;2252.80
56436;DHT22;42335;44.872;20.658;2022-09-24T02:07:31;230.90;2252.80
56436;DHT22;42335;44.872;20.658;2022-09-24T02:09:59;230.90;2252.80
56436;DHT22;42335;44.872;20.658;2022-09-24T02:12:28;230.90;2252.80
56436;DHT22;42335;44.872;20.658;2022-09-24T02:17:34;230.90;2252.80
56436;DHT22;42335;44.872;20.658;2022-09-24T02:20:02;231.00;2252.80
56436;DHT22;42335;44.872;20.658;2022-09-24T02:22:30;230.90;2252.80
56436;DHT22;42335;44.872;20.658;2022-09-24T02:24:58;230.90;2252.80
56436;DHT22;42335;44.872;20.658;2022-09-24T02:27:26;230.80;2252.80
56436;DHT22;42335;44.872;20.658;2022-09-24T02:29:57;230.70;2252.80
56436;DHT22;42335;44.872;20.658;2022-09-24T02:32:25;230.50;2252.80
56436;DHT22;42335;44.872;20.658;2022-09-24T02:34:56;230.60;2252.80
56436;DHT22;42335;44.872;20.658;2022-09-24T02:37:23;230.50;2252.80
56436;DHT22;42335;44.872;20.658;2022-09-24T02:39:50;230.40;2252.80
56436;DHT22;42335;44.872;20.658;2022-09-24T02:42:17;230.40;2252.80
56436;DHT22;42335;44.872;20.658;2022-09-24T02:44:43;230.40;2252.80
56436;DHT22;42335;44.872;20.658;2022-09-24T02:47:09;205.60;2252.80
56436;DHT22;42335;44.872;20.658;2022-09-24T02:49:35;205.60;2252.80
56436;DHT22;42335;44.872;20.658;2022-09-24T02:52:01;205.60;2252.80
56436;DHT22;42335;44.872;20.658;2022-09-24T02:54:27;205.40;2252.80
56436;DHT22;42335;44.872;20.658;2022-09-24T02:56:53;205.30;2252.80
56436;DHT22;42335;44.872;20.658;2022-09-24T02:59:19;205.10;2252.80
56436;DHT22;42335;44.872;20.658;2022-09-24T03:01:45;205.20;2252.80
56436;DHT22;42335;44.872;20.658;2022-09-24T03:04:11;205.30;2252.80
56436;DHT22;42335;44.872;20.658;2022-09-24T03:06:37;205.30;2252.80
56436;DHT22;42335;44.872;20.658;2022-09-24T03:09:03;205.40;2252.80
56436;DHT22;42335;44.872;20.658;2022-09-24T03:11:29;205.50;2252.80
56436;DHT22;42335;44.872;20.658;2022-09-24T03:13:56;205.50;2252.80
56436;DHT22;42335;44.872;20.658;2022-09-24T03:16:22;205.60;2252.80
56436;DHT22;42335;44.872;20.658;2022-09-24T03:18:48;205.60;2252.80
56436;DHT22;42335;44.872;20.658;2022-09-24T03:21:16;205.70;2252.80
56436;DHT22;42335;44.872;20.658;2022-09-24T03:23:42;205.70;2252.80
56436;DHT22;42335;44.872;20.658;2022-09-24T03:26:08;205.70;2252.80
56436;DHT22;42335;44.872;20.658;2022-09-24T03:28:34;205.60;2252.80
56436;DHT22;42335;44.872;20.658;2022-09-24T03:30:59;205.60;2252.80
56436;DHT22;42335;44.872;20.658;2022-09-24T03:33:33;205.50;2252.80
56436;DHT22;42335;44.872;20.658;2022-09-24T03:38:27;205.40;2252.80
56436;DHT22;42335;44.872;20.658;2022-09-24T03:40:54;205.30;2252.80
56436;DHT22;42335;44.872;20.658;2022-09-24T03:43:20;205.30;2252.80
56436;DHT22;42335;44.872;20.658;2022-09-24T03:45:45;205.10;2252.80
56436;DHT22;42335;44.872;20.658;2022-09-24T03:48:11;205.10;2252.80
56436;DHT22;42335;44.872;20.658;2022-09-24T03:50:37;204.90;2252.80
56436;DHT22;42335;44.872;20.658;2022-09-24T03:53:03;204.80;2252.80
56436;DHT22;42335;44.872;20.658;2022-09-24T03:55:29;204.80;2252.80
56436;DHT22;42335;44.872;20.658;2022-09-24T03:57:55;204.80;2252.80
56436;DHT22;42335;44.872;20.658;2022-09-24T04:00:20;204.80;2252.80
56436;DHT22;42335;44.872;20.658;2022-09-24T04:02:48;204.90;2252.80
56436;DHT22;42335;44.872;20.658;2022-09-24T04:05:14;204.90;2252.80
56436;DHT22;42335;44.872;20.658;2022-09-24T04:07:42;204.80;2252.80
56436;DHT22;42335;44.872;20.658;2022-09-24T04:10:08;204.80;2252.80
56436;DHT22;42335;44.872;20.658;2022-09-24T04:12:34;204.90;2252.80
56436;DHT22;42335;44.872;20.658;2022-09-24T04:15:00;204.90;2252.80
56436;DHT22;42335;44.872;20.658;2022-09-24T04:17:29;204.90;2252.80
56436;DHT22;42335;44.872;20.658;2022-09-24T04:19:57;204.90;2252.80
56436;DHT22;42335;44.872;20.658;2022-09-24T04:22:24;180.10;2252.80
56436;DHT22;42335;44.872;20.658;2022-09-24T04:24:51;204.80;2252.80
56436;DHT22;42335;44.872;20.658;2022-09-24T04:27:17;204.90;2252.80
56436;DHT22;42335;44.872;20.658;2022-09-24T04:29:43;204.90;2252.80
56436;DHT22;42335;44.872;20.658;2022-09-24T04:32:08;204.90;2252.80
56436;DHT22;42335;44.872;20.658;2022-09-24T04:34:34;204.80;2252.80
56436;DHT22;42335;44.872;20.658;2022-09-24T04:37:00;179.90;2252.80
56436;DHT22;42335;44.872;20.658;2022-09-24T04:39:25;179.70;2252.80
56436;DHT22;42335;44.872;20.658;2022-09-24T04:41:52;179.80;2252.80
56436;DHT22;42335;44.872;20.658;2022-09-24T04:44:18;179.90;2252.80
56436;DHT22;42335;44.872;20.658;2022-09-24T04:46:44;180.00;2252.80
56436;DHT22;42335;44.872;20.658;2022-09-24T04:49:09;179.80;2252.80
56436;DHT22;42335;44.872;20.658;2022-09-24T04:51:36;179.70;2252.80
56436;DHT22;42335;44.872;20.658;2022-09-24T04:54:02;179.70;2252.80
56436;DHT22;42335;44.872;20.658;2022-09-24T04:56:28;179.80;2252.80
56436;DHT22;42335;44.872;20.658;2022-09-24T04:58:54;179.80;2252.80
56436;DHT22;42335;44.872;20.658;2022-09-24T05:01:20;179.70;2252.80
56436;DHT22;42335;44.872;20.658;2022-09-24T05:03:45;179.60;2252.80
56436;DHT22;42335;44.872;20.658;2022-09-24T05:06:11;179.60;2252.80
56436;DHT22;42335;44.872;20.658;2022-09-24T05:08:37;179.70;2252.80
56436;DHT22;42335;44.872;20.658;2022-09-24T05:11:03;179.80;2252.80
56436;DHT22;42335;44.872;20.658;2022-09-24T05:13:28;179.70;2252.80
56436;DHT22;42335;44.872;20.658;2022-09-24T05:15:54;179.60;2252.80
56436;DHT22;42335;44.872;20.658;2022-09-24T05:18:20;179.60;2252.80
56436;DHT22;42335;44.872;20.658;2022-09-24T05:20:45;179.60;2252.80
56436;DHT22;42335;44.872;20.658;2022-09-24T05:23:11;179.80;2252.80
56436;DHT22;42335;44.872;20.658;2022-09-24T05:25:37;179.70;2252.80
56436;DHT22;42335;44.872;20.658;2022-09-24T05:28:23;179.80;2252.80
56436;DHT22;42335;44.872;20.658;2022-09-24T05:30:48;179.80;2252.80
56436;DHT22;42335;44.872;20.658;2022-09-24T05:33:14;180.00;2252.80
56436;DHT22;42335;44.872;20.658;2022-09-24T05:35:40;204.80;2252.80
56436;DHT22;42335;44.872;20.658;2022-09-24T05:38:05;205.00;2252.80
56436;DHT22;42335;44.872;20.658;2022-09-24T05:40:31;205.10;2252.80
56436;DHT22;42335;44.872;20.658;2022-09-24T05:43:16;205.20;2252.80
56436;DHT22;42335;44.872;20.658;2022-09-24T05:45:44;205.50;2252.80
56436;DHT22;42335;44.872;20.658;2022-09-24T05:48:10;230.40;2252.80
56436;DHT22;42335;44.872;20.658;2022-09-24T05:50:36;205.70;2252.80
56436;DHT22;42335;44.872;20.658;2022-09-24T05:53:03;230.60;2252.80
56436;DHT22;42335;44.872;20.658;2022-09-24T05:55:30;230.60;2252.80
56436;DHT22;42335;44.872;20.658;2022-09-24T05:58:00;230.80;2252.80
56436;DHT22;42335;44.872;20.658;2022-09-24T06:00:26;231.10;2252.80
56436;DHT22;42335;44.872;20.658;2022-09-24T06:02:51;256.00;2252.80
56436;DHT22;42335;44.872;20.658;2022-09-24T06:05:17;256.60;2252.80
56436;DHT22;42335;44.872;20.658;2022-09-24T06:07:43;281.60;2278.40
56436;DHT22;42335;44.872;20.658;2022-09-24T06:10:08;282.40;2278.40
56436;DHT22;42335;44.872;20.658;2022-09-24T06:12:34;307.40;2304.00
56436;DHT22;42335;44.872;20.658;2022-09-24T06:15:01;307.80;2304.00
56436;DHT22;42335;44.872;20.658;2022-09-24T06:17:27;308.10;2304.00
56436;DHT22;42335;44.872;20.658;2022-09-24T06:19:53;333.00;2329.60
56436;DHT22;42335;44.872;20.658;2022-09-24T06:22:19;333.50;2329.60
56436;DHT22;42335;44.872;20.658;2022-09-24T06:24:45;358.60;2329.60
56436;DHT22;42335;44.872;20.658;2022-09-24T06:27:11;358.80;2329.60
56436;DHT22;42335;44.872;20.658;2022-09-24T06:29:37;358.70;2329.60
56436;DHT22;42335;44.872;20.658;2022-09-24T06:32:03;384.10;2329.60
56436;DHT22;42335;44.872;20.658;2022-09-24T07:55:02;819.40;1126.40
56436;DHT22;42335;44.872;20.658;2022-09-24T07:57:28;819.60;1075.20
56436;DHT22;42335;44.872;20.658;2022-09-24T08:02:19;743.30;1177.60
56436;DHT22;42335;44.872;20.658;2022-09-24T08:04:45;742.50;1203.20
56436;DHT22;42335;44.872;20.658;2022-09-24T08:07:12;692.10;1228.80
56436;DHT22;42335;44.872;20.658;2022-09-24T08:26:41;691.30;1305.60
56436;DHT22;42335;44.872;20.658;2022-09-24T08:29:07;691.30;1280.00
56436;DHT22;42335;44.872;20.658;2022-09-24T11:47:50;1152.50;537.60
56436;DHT22;42335;44.872;20.658;2022-09-24T12:38:25;742.40;921.60
56436;DHT22;42335;44.872;20.658;2022-09-24T12:43:38;717.30;896.00
56436;DHT22;42335;44.872;20.658;2022-09-24T12:46:11;717.20;921.60
56436;DHT22;42335;44.872;20.658;2022-09-24T12:48:43;717.10;921.60
56436;DHT22;42335;44.872;20.658;2022-09-24T17:00:14;487.30;1740.80
56436;DHT22;42335;44.872;20.658;2022-09-24T17:02:40;487.00;1766.40
56436;DHT22;42335;44.872;20.658;2022-09-24T17:05:06;486.80;1792.00
56436;DHT22;42335;44.872;20.658;2022-09-24T17:07:32;486.60;1817.60
56436;DHT22;42335;44.872;20.658;2022-09-24T17:09:58;486.50;1868.80
56436;DHT22;42335;44.872;20.658;2022-09-24T17:12:45;486.40;1868.80
56436;DHT22;42335;44.872;20.658;2022-09-24T17:15:12;486.40;1894.40
56436;DHT22;42335;44.872;20.658;2022-09-24T17:17:40;461.60;1920.00
56436;DHT22;42335;44.872;20.658;2022-09-24T17:20:06;461.50;1920.00
56436;DHT22;42335;44.872;20.658;2022-09-24T17:22:32;461.40;1920.00
56436;DHT22;42335;44.872;20.658;2022-09-24T17:24:57;461.30;1945.60
56436;DHT22;42335;44.872;20.658;2022-09-24T17:27:23;461.20;1971.20
56436;DHT22;42335;44.872;20.658;2022-09-24T17:29:49;461.20;1945.60
56436;DHT22;42335;44.872;20.658;2022-09-24T17:32:15;461.20;1894.40
56436;DHT22;42335;44.872;20.658;2022-09-24T17:34:40;461.10;1868.80
56436;DHT22;42335;44.872;20.658;2022-09-24T17:37:06;461.10;1843.20
56436;DHT22;42335;44.872;20.658;2022-09-24T17:39:31;461.10;1817.60
56436;DHT22;42335;44.872;20.658;2022-09-24T17:41:58;461.10;1817.60
56436;DHT22;42335;44.872;20.658;2022-09-24T17:44:24;461.10;1868.80
56436;DHT22;42335;44.872;20.658;2022-09-24T17:46:49;461.00;1920.00
56436;DHT22;42335;44.872;20.658;2022-09-24T17:49:15;461.00;1945.60
56436;DHT22;42335;44.872;20.658;2022-09-24T17:51:41;460.90;1945.60
56436;DHT22;42335;44.872;20.658;2022-09-24T17:54:11;460.80;1971.20
56436;DHT22;42335;44.872;20.658;2022-09-24T17:56:37;436.10;1945.60
